Cadiz, Kentucky
Current Conditions -  °F | °C
As of 8:58 AM on Thursday 30 Oct 2014 (Local Time) from KHOP Reporting Station
Clear Clear  
Wind Chill: 44°   Ceiling: Unl
Heat Index: 44°   Visibility: 10mi
Dew Point: 44°   Wind: 2mph
Humidity: 100%   Direction: 40°NE
Pressure: 30.17"   Gusts: NA
Location:  36.87°N, 87.84°W
Report Text: KHOP 301358Z AUTO 04002KT 10SM CLR 07/07 A3017 RMK AO2 SLP219 T00690069
Loading
Personal Weather Stations






























Interactive Weather Map New forecast layout! Learn more

10-Day Weather Forecast

Advertisements
Track Severe Weather on mobile